Time;durP1;ratioP1;P1;durP2;ratioP2;P2;SDS_P1;SDS_P2;PMS_P1;PMS_P2;Temp;Humidity;BMP_temperature;BMP_pressure;BME280_temperature;BME280_humidity;BME280_pressure;Samples;Min_cycle;Max_cycle;Signal;HPM_P1;HPM_P2
2021/11/30 00:01:15;;;;;;;1.17;1.13;;;4.30;99.90;;;;;;5013640;28;20488;-74
2021/11/30 00:03:40;;;;;;;0.70;0.70;;;4.20;99.90;;;;;;5013613;28;21018;-74
2021/11/30 00:06:07;;;;;;;1.53;1.43;;;4.30;99.90;;;;;;5013426;28;20411;-74
2021/11/30 00:08:34;;;;;;;0.70;0.50;;;4.30;99.90;;;;;;5013105;28;20200;-74
2021/11/30 00:11:01;;;;;;;0.70;0.50;;;4.40;99.90;;;;;;5013868;28;20431;-74
2021/11/30 00:13:28;;;;;;;0.70;0.50;;;4.40;99.90;;;;;;5013937;28;20481;-74
2021/11/30 00:15:56;;;;;;;0.70;0.50;;;4.40;99.90;;;;;;5028768;28;20450;-74
2021/11/30 00:18:22;;;;;;;1.00;0.90;;;4.40;99.90;;;;;;5012953;28;20411;-75
2021/11/30 00:20:48;;;;;;;0.70;0.50;;;4.40;99.90;;;;;;5013201;28;20438;-74
2021/11/30 00:23:15;;;;;;;0.70;0.70;;;4.40;99.90;;;;;;5013267;28;20461;-74
2021/11/30 00:25:41;;;;;;;0.70;0.50;;;4.40;99.90;;;;;;5013104;28;20399;-74
2021/11/30 00:28:08;;;;;;;0.70;0.50;;;4.30;99.90;;;;;;5013363;28;20399;-74
2021/11/30 00:30:35;;;;;;;1.10;1.00;;;4.30;99.90;;;;;;5013500;28;20423;-75
2021/11/30 00:33:01;;;;;;;1.97;1.87;;;4.30;99.90;;;;;;5013488;28;20739;-74
2021/11/30 00:35:28;;;;;;;0.70;0.50;;;4.30;99.90;;;;;;5013157;28;20823;-74
2021/11/30 00:37:54;;;;;;;0.70;0.50;;;4.30;99.90;;;;;;5013849;28;20924;-74
2021/11/30 00:40:20;;;;;;;0.70;0.63;;;4.30;99.90;;;;;;5013567;28;20434;-74
2021/11/30 00:42:46;;;;;;;0.70;0.60;;;4.30;99.90;;;;;;5012418;28;20242;-74
2021/11/30 00:45:17;;;;;;;0.70;0.40;;;4.30;99.90;;;;;;5012973;28;20458;-74
2021/11/30 00:47:59;;;;;;;0.70;0.50;;;4.30;99.90;;;;;;5028552;28;20936;-74
2021/11/30 00:50:28;;;;;;;1.83;1.73;;;4.30;99.90;;;;;;5013537;28;20431;-74
2021/11/30 00:52:55;;;;;;;0.83;0.73;;;4.30;99.90;;;;;;5013657;28;20459;-74
2021/11/30 00:55:22;;;;;;;0.70;0.50;;;4.30;99.90;;;;;;5012912;28;20415;-74
2021/11/30 00:57:48;;;;;;;0.70;0.50;;;4.30;99.90;;;;;;5028676;28;20979;-74
2021/11/30 01:00:19;;;;;;;0.70;0.47;;;4.30;99.90;;;;;;5013399;28;20576;-74
2021/11/30 01:02:46;;;;;;;0.70;0.50;;;4.30;99.90;;;;;;5013293;28;20557;-74
2021/11/30 01:05:13;;;;;;;1.27;1.17;;;4.30;99.90;;;;;;5028241;28;20552;-74
2021/11/30 01:07:39;;;;;;;0.70;0.50;;;4.30;99.90;;;;;;5013528;28;20415;-74
2021/11/30 01:10:12;;;;;;;0.70;0.50;;;4.30;99.90;;;;;;5013122;28;20430;-75
2021/11/30 01:12:38;;;;;;;0.70;0.50;;;4.30;99.90;;;;;;5028007;28;20168;-74
2021/11/30 01:15:09;;;;;;;0.70;0.50;;;4.30;99.90;;;;;;5012113;28;20940;-74
2021/11/30 01:17:35;;;;;;;0.90;0.90;;;4.30;99.90;;;;;;5013312;28;20411;-74
2021/11/30 01:20:01;;;;;;;0.70;0.50;;;4.30;99.90;;;;;;5014980;28;20437;-74
2021/11/30 01:22:26;;;;;;;0.70;0.50;;;4.30;99.90;;;;;;5017040;28;20226;-75
2021/11/30 01:24:52;;;;;;;0.70;0.50;;;4.20;99.90;;;;;;5016800;28;20518;-74
2021/11/30 01:27:17;;;;;;;0.70;0.60;;;4.30;99.90;;;;;;5016394;28;20180;-74
2021/11/30 01:29:43;;;;;;;1.40;0.70;;;4.30;99.90;;;;;;5016152;28;20172;-74
2021/11/30 01:32:09;;;;;;;1.03;0.97;;;4.30;99.90;;;;;;5016584;28;20208;-74
2021/11/30 01:34:35;;;;;;;0.70;0.50;;;4.40;99.90;;;;;;5017318;28;20172;-74
2021/11/30 01:37:00;;;;;;;0.70;0.50;;;4.40;99.90;;;;;;5031935;28;20484;-74
2021/11/30 01:39:26;;;;;;;0.70;0.40;;;4.40;99.90;;;;;;5031905;28;20271;-74
2021/11/30 01:41:53;;;;;;;3.27;1.17;;;4.40;99.90;;;;;;5016562;28;20198;-74
2021/11/30 01:44:29;;;;;;;0.70;0.50;;;4.40;99.90;;;;;;5016436;28;20233;-74
2021/11/30 01:49:34;;;;;;;0.70;0.50;;;4.40;99.90;;;;;;5016673;28;20422;-74
2021/11/30 01:52:00;;;;;;;0.70;0.40;;;4.40;99.90;;;;;;5031685;28;20919;-74
2021/11/30 01:54:26;;;;;;;0.80;0.70;;;4.40;99.90;;;;;;5016444;28;20414;-74
2021/11/30 01:56:52;;;;;;;0.70;0.50;;;4.40;99.90;;;;;;5015784;28;20525;-75
2021/11/30 01:59:18;;;;;;;0.70;0.50;;;4.40;99.90;;;;;;5016713;28;20180;-74
2021/11/30 02:01:43;;;;;;;0.70;0.50;;;4.50;99.90;;;;;;5016281;28;20431;-74
2021/11/30 02:04:09;;;;;;;1.00;0.70;;;4.50;99.90;;;;;;5014807;28;20199;-74
2021/11/30 02:06:35;;;;;;;0.70;0.50;;;4.40;99.90;;;;;;5015861;28;20597;-74
2021/11/30 02:09:01;;;;;;;0.70;0.60;;;4.50;99.90;;;;;;5015974;28;20403;-74
2021/11/30 02:11:26;;;;;;;0.70;0.50;;;4.40;99.90;;;;;;5018838;28;20192;-74
2021/11/30 02:13:52;;;;;;;0.70;0.50;;;4.50;99.90;;;;;;5022704;28;20179;-74
2021/11/30 02:16:20;;;;;;;0.80;0.70;;;4.50;99.90;;;;;;5016936;28;20896;-74
2021/11/30 02:18:48;;;;;;;0.80;0.63;;;4.50;99.90;;;;;;5015606;28;20452;-73
2021/11/30 02:21:14;;;;;;;0.70;0.50;;;4.50;99.90;;;;;;5016644;28;20474;-74
2021/11/30 02:23:48;;;;;;;1.23;1.13;;;4.50;99.90;;;;;;5016262;28;20537;-73
2021/11/30 02:26:16;;;;;;;0.70;0.40;;;4.50;99.90;;;;;;5013940;28;20391;-74
2021/11/30 02:28:45;;;;;;;0.70;0.40;;;4.50;99.90;;;;;;5013200;28;20419;-74
2021/11/30 02:31:14;;;;;;;0.70;0.50;;;4.40;99.90;;;;;;5013431;28;20809;-74
2021/11/30 02:33:40;;;;;;;0.70;0.50;;;4.50;99.90;;;;;;5012796;28;20785;-73
2021/11/30 02:36:15;;;;;;;0.70;0.50;;;4.50;99.90;;;;;;5013787;28;20772;-73
2021/11/30 02:38:40;;;;;;;0.80;0.60;;;4.50;99.90;;;;;;5013956;28;20843;-74
2021/11/30 02:41:06;;;;;;;0.70;0.50;;;4.50;99.90;;;;;;5014797;28;20434;-74
2021/11/30 02:43:32;;;;;;;0.77;0.70;;;4.50;99.90;;;;;;5016077;28;20188;-74
2021/11/30 02:45:57;;;;;;;0.70;0.50;;;4.50;99.90;;;;;;5030752;28;20168;-74
2021/11/30 02:48:23;;;;;;;0.70;0.40;;;4.50;99.90;;;;;;5036552;28;20539;-74
2021/11/30 02:50:49;;;;;;;0.70;0.50;;;4.50;99.90;;;;;;5022189;28;20192;-74
2021/11/30 02:53:21;;;;;;;0.70;0.50;;;4.50;99.90;;;;;;5031507;28;20176;-74
2021/11/30 02:55:46;;;;;;;0.70;0.53;;;4.50;99.90;;;;;;5014870;28;20840;-73
2021/11/30 02:58:13;;;;;;;0.70;0.40;;;4.50;99.90;;;;;;5016547;28;20440;-74
2021/11/30 03:00:41;;;;;;;0.70;0.50;;;4.50;99.90;;;;;;5029748;28;20235;-74
2021/11/30 03:03:07;;;;;;;1.30;0.70;;;4.40;99.90;;;;;;5015235;28;20410;-74
2021/11/30 03:05:33;;;;;;;1.17;1.07;;;4.50;99.90;;;;;;5020511;28;20976;-74
2021/11/30 03:07:58;;;;;;;0.70;0.50;;;4.40;99.90;;;;;;5036936;28;20172;-74
2021/11/30 03:10:24;;;;;;;0.80;0.60;;;4.40;99.90;;;;;;5015396;28;20438;-74
2021/11/30 03:12:50;;;;;;;0.70;0.50;;;4.40;99.90;;;;;;5014230;28;20175;-75
2021/11/30 03:15:19;;;;;;;0.70;0.50;;;4.20;99.90;;;;;;5012484;28;20238;-74
2021/11/30 03:17:45;;;;;;;0.70;0.50;;;4.10;99.90;;;;;;5012128;28;20454;-73
2021/11/30 03:20:11;;;;;;;0.70;0.50;;;4.10;99.90;;;;;;5013080;28;20442;-74
2021/11/30 03:22:38;;;;;;;0.70;0.50;;;4.10;99.90;;;;;;5013227;28;20417;-74
2021/11/30 03:25:06;;;;;;;0.70;0.40;;;4.10;99.90;;;;;;5013702;28;20462;-74
2021/11/30 03:27:32;;;;;;;0.70;0.50;;;4.00;99.90;;;;;;5014854;28;20441;-74
2021/11/30 03:29:57;;;;;;;0.70;0.40;;;4.00;99.90;;;;;;5031429;28;20780;-74
2021/11/30 03:35:08;;;;;;;2.40;1.67;;;3.90;99.90;;;;;;5013547;28;20580;-74
2021/11/30 03:37:34;;;;;;;0.70;0.50;;;3.90;99.90;;;;;;5029305;28;20419;-74
2021/11/30 03:40:01;;;;;;;1.40;1.30;;;3.90;99.90;;;;;;5013426;28;20458;-74
2021/11/30 03:42:27;;;;;;;0.70;0.50;;;3.90;99.90;;;;;;5015685;28;20414;-75
2021/11/30 03:44:53;;;;;;;0.70;0.50;;;3.90;99.90;;;;;;5017804;28;20450;-75
2021/11/30 03:47:19;;;;;;;0.70;0.50;;;3.90;99.90;;;;;;5021661;28;21078;-74
2021/11/30 03:49:45;;;;;;;0.70;0.50;;;3.90;99.90;;;;;;5018439;28;21102;-74
2021/11/30 03:52:11;;;;;;;0.90;0.60;;;3.90;99.90;;;;;;5013684;28;20414;-74
2021/11/30 03:54:36;;;;;;;0.70;0.40;;;3.80;99.90;;;;;;5014997;28;20176;-73
2021/11/30 03:57:04;;;;;;;0.70;0.47;;;3.80;99.90;;;;;;5013046;28;20916;-76
2021/11/30 03:59:29;;;;;;;0.70;0.50;;;3.80;99.90;;;;;;5021569;28;20211;-75
2021/11/30 04:01:55;;;;;;;0.70;0.50;;;3.80;99.90;;;;;;5019406;28;20442;-74
2021/11/30 04:04:26;;;;;;;0.70;0.60;;;3.80;99.90;;;;;;5019510;28;20283;-73
2021/11/30 04:06:55;;;;;;;0.70;0.50;;;3.80;99.90;;;;;;5019243;28;20172;-74
2021/11/30 04:09:23;;;;;;;0.70;0.50;;;3.80;99.90;;;;;;5016620;28;20422;-73
2021/11/30 04:11:49;;;;;;;0.70;0.60;;;3.80;99.90;;;;;;5013284;28;20427;-74
2021/11/30 04:14:15;;;;;;;0.70;0.40;;;3.90;99.90;;;;;;5028757;28;20414;-73
2021/11/30 04:16:42;;;;;;;0.70;0.50;;;3.90;99.90;;;;;;5014820;28;20408;-73
2021/11/30 04:19:08;;;;;;;0.70;0.50;;;3.90;99.90;;;;;;5015640;28;20986;-73
2021/11/30 04:21:33;;;;;;;0.70;0.70;;;4.00;99.90;;;;;;5015098;28;20426;-73
2021/11/30 04:23:59;;;;;;;0.70;0.50;;;4.00;99.90;;;;;;5015217;28;20450;-73
2021/11/30 04:26:25;;;;;;;3.13;0.93;;;4.00;99.90;;;;;;5011530;28;20824;-73
2021/11/30 04:28:51;;;;;;;0.70;0.40;;;4.10;99.90;;;;;;5014207;28;20410;-73
2021/11/30 04:31:16;;;;;;;0.70;0.50;;;4.10;99.90;;;;;;5030664;28;20198;-73
2021/11/30 04:33:42;;;;;;;0.60;0.40;;;4.10;99.90;;;;;;5018122;28;20660;-74
2021/11/30 04:36:08;;;;;;;0.70;0.40;;;4.20;99.90;;;;;;5031619;28;20534;-73
2021/11/30 04:38:35;;;;;;;0.70;0.50;;;4.20;99.90;;;;;;5018545;28;20169;-75
2021/11/30 04:41:01;;;;;;;0.70;0.50;;;4.20;99.90;;;;;;5014542;28;20240;-73
2021/11/30 04:43:34;;;;;;;0.60;0.40;;;4.20;99.90;;;;;;5012880;28;20410;-74
2021/11/30 04:46:03;;;;;;;0.80;0.70;;;4.30;99.90;;;;;;5015526;28;20403;-75
2021/11/30 04:48:29;;;;;;;0.70;0.40;;;4.30;99.90;;;;;;5016857;28;20418;-73
2021/11/30 04:50:57;;;;;;;0.70;0.50;;;4.30;99.90;;;;;;5012724;28;20574;-73
2021/11/30 04:53:26;;;;;;;0.70;0.50;;;4.30;99.90;;;;;;5012761;28;20404;-74
2021/11/30 04:55:52;;;;;;;0.70;0.50;;;4.30;99.90;;;;;;5033938;28;20441;-72
2021/11/30 04:58:18;;;;;;;0.70;0.60;;;4.40;99.90;;;;;;5017762;28;20411;-74
2021/11/30 05:00:44;;;;;;;0.60;0.40;;;4.40;99.90;;;;;;5001208;28;20439;-73
2021/11/30 05:03:10;;;;;;;3.57;0.90;;;4.40;99.90;;;;;;5015940;28;20482;-73
2021/11/30 05:05:36;;;;;;;0.60;0.40;;;4.40;99.90;;;;;;5016273;28;21092;-73
2021/11/30 05:08:03;;;;;;;0.73;0.73;;;4.40;99.90;;;;;;5017992;28;20171;-73
2021/11/30 05:10:29;;;;;;;0.70;0.50;;;4.50;99.90;;;;;;5022917;28;20282;-71
2021/11/30 05:12:55;;;;;;;0.80;0.80;;;4.50;99.90;;;;;;5020573;28;20407;-74
2021/11/30 05:15:20;;;;;;;0.60;0.40;;;4.50;99.90;;;;;;5018826;28;20453;-74
2021/11/30 05:17:48;;;;;;;1.03;1.00;;;4.50;99.90;;;;;;5019260;28;20168;-73
2021/11/30 05:20:15;;;;;;;1.93;0.80;;;4.50;99.90;;;;;;5019753;28;20184;-73
2021/11/30 05:22:40;;;;;;;2.20;1.23;;;4.60;99.90;;;;;;5016908;28;20406;-73
2021/11/30 05:25:07;;;;;;;0.70;0.40;;;4.60;99.90;;;;;;5015326;28;20438;-74
2021/11/30 05:27:39;;;;;;;0.60;0.40;;;4.60;99.90;;;;;;5015497;28;20171;-73
2021/11/30 05:30:08;;;;;;;0.70;0.40;;;4.70;99.90;;;;;;5015271;28;20426;-74
2021/11/30 05:32:33;;;;;;;0.63;0.40;;;4.70;99.90;;;;;;5015164;28;20507;-72
2021/11/30 05:34:59;;;;;;;0.70;0.50;;;4.70;99.90;;;;;;5017551;28;20912;-73
2021/11/30 05:37:24;;;;;;;0.70;0.50;;;4.80;99.90;;;;;;5016441;28;20195;-73
2021/11/30 05:39:50;;;;;;;0.60;0.50;;;4.80;99.90;;;;;;5016363;28;20210;-74
2021/11/30 05:42:15;;;;;;;0.83;0.83;;;4.80;99.90;;;;;;5015211;28;20227;-73
2021/11/30 05:44:41;;;;;;;2.50;2.30;;;4.80;99.90;;;;;;5016175;28;20188;-73
2021/11/30 05:47:07;;;;;;;0.70;0.47;;;4.80;99.90;;;;;;5033830;28;20164;-74
2021/11/30 05:49:32;;;;;;;0.70;0.50;;;4.80;99.90;;;;;;5016520;28;20228;-73
2021/11/30 05:51:59;;;;;;;0.70;0.60;;;4.90;99.90;;;;;;5016207;28;20236;-73
2021/11/30 05:54:25;;;;;;;0.70;0.50;;;4.90;99.90;;;;;;5036342;28;20168;-73
2021/11/30 05:56:50;;;;;;;0.60;0.50;;;4.90;99.90;;;;;;5019262;28;20419;-74
2021/11/30 05:59:17;;;;;;;0.70;0.50;;;5.00;99.90;;;;;;5020982;28;20172;-73
2021/11/30 06:01:42;;;;;;;0.67;0.50;;;5.00;99.90;;;;;;5036854;28;20203;-73
2021/11/30 06:04:08;;;;;;;0.60;0.50;;;5.10;99.90;;;;;;5020691;28;21117;-72
2021/11/30 06:06:36;;;;;;;0.67;0.43;;;5.10;99.90;;;;;;5013240;28;20168;-73
2021/11/30 06:09:05;;;;;;;0.60;0.40;;;5.10;99.90;;;;;;5014511;28;20705;-72
2021/11/30 06:11:30;;;;;;;0.70;0.40;;;5.20;99.90;;;;;;5014600;28;20431;-72
2021/11/30 06:13:56;;;;;;;0.60;0.40;;;5.30;99.90;;;;;;5017951;28;20896;-73
2021/11/30 06:16:22;;;;;;;0.60;0.50;;;5.30;99.90;;;;;;5021005;28;20198;-73
2021/11/30 06:18:48;;;;;;;0.70;0.70;;;5.40;99.90;;;;;;5016252;28;20180;-72
2021/11/30 06:21:15;;;;;;;0.70;0.50;;;5.40;99.90;;;;;;5014754;28;20434;-71
2021/11/30 06:23:42;;;;;;;2.80;2.60;;;5.40;99.90;;;;;;5015676;28;20188;-72
2021/11/30 06:26:09;;;;;;;0.70;0.50;;;5.50;99.90;;;;;;5014372;28;20406;-70
2021/11/30 06:28:35;;;;;;;0.60;0.40;;;5.50;99.90;;;;;;5015149;28;20412;-72
2021/11/30 06:31:01;;;;;;;0.63;0.50;;;5.60;99.90;;;;;;5016146;28;20503;-72
2021/11/30 06:33:27;;;;;;;1.47;1.37;;;5.70;99.90;;;;;;5018419;28;20434;-73
2021/11/30 06:35:53;;;;;;;0.67;0.47;;;5.70;99.90;;;;;;5021556;28;20407;-72
2021/11/30 06:38:18;;;;;;;0.90;0.70;;;5.80;99.90;;;;;;5034765;28;20172;-72
2021/11/30 06:40:44;;;;;;;0.70;0.50;;;5.80;99.90;;;;;;5013913;28;20635;-71
2021/11/30 06:43:09;;;;;;;0.70;0.50;;;5.90;99.90;;;;;;5013912;28;20646;-72
2021/11/30 06:45:35;;;;;;;0.80;0.70;;;5.90;99.90;;;;;;5013519;28;20204;-72
2021/11/30 06:48:01;;;;;;;0.63;0.50;;;6.00;99.90;;;;;;5013803;28;20422;-72
2021/11/30 06:50:27;;;;;;;0.80;0.70;;;6.10;99.90;;;;;;5013692;28;20183;-71
2021/11/30 06:52:53;;;;;;;0.80;0.60;;;6.10;99.90;;;;;;5013665;28;20183;-71
2021/11/30 06:55:18;;;;;;;3.90;1.07;;;6.10;99.90;;;;;;5014531;28;20165;-74
2021/11/30 06:57:44;;;;;;;0.70;0.40;;;6.20;99.90;;;;;;5014884;28;20832;-72
2021/11/30 07:00:12;;;;;;;0.70;0.50;;;6.20;99.90;;;;;;5014344;28;20195;-72
2021/11/30 07:02:38;;;;;;;0.70;0.40;;;6.30;99.90;;;;;;5013986;28;20693;-71
2021/11/30 07:05:30;;;;;;;0.70;0.60;;;6.30;99.90;;;;;;5017747;28;20475;-72
2021/11/30 07:08:10;;;;;;;0.70;0.60;;;6.30;99.90;;;;;;5016230;28;20195;-72
2021/11/30 07:10:52;;;;;;;0.70;0.50;;;6.30;99.90;;;;;;5014462;28;21002;-71
2021/11/30 07:13:22;;;;;;;0.70;0.50;;;6.30;99.90;;;;;;5030140;28;20418;-72
2021/11/30 07:15:57;;;;;;;0.70;0.50;;;6.40;99.90;;;;;;5014292;28;20485;-72
2021/11/30 07:18:24;;;;;;;1.10;1.00;;;6.40;99.90;;;;;;5013962;28;20419;-72
2021/11/30 07:20:51;;;;;;;0.60;0.50;;;6.30;99.90;;;;;;5014429;28;20431;-71
2021/11/30 07:23:17;;;;;;;1.33;1.23;;;6.40;99.90;;;;;;5014390;28;20454;-71
2021/11/30 07:25:43;;;;;;;0.70;0.40;;;6.40;99.90;;;;;;5012738;28;20776;-72
2021/11/30 07:28:09;;;;;;;0.70;0.50;;;6.40;99.90;;;;;;5013870;28;20431;-72
2021/11/30 07:30:36;;;;;;;0.70;0.50;;;6.40;99.90;;;;;;5013810;28;20506;-72
2021/11/30 07:33:02;;;;;;;0.60;0.47;;;6.40;99.90;;;;;;5013950;28;20758;-72
2021/11/30 07:35:28;;;;;;;0.70;0.50;;;6.50;99.90;;;;;;5013683;28;20411;-71
2021/11/30 07:37:54;;;;;;;1.37;1.27;;;6.40;99.90;;;;;;5013694;28;20498;-72
2021/11/30 07:40:20;;;;;;;0.70;0.40;;;6.50;99.90;;;;;;5013703;28;20423;-72
2021/11/30 07:42:46;;;;;;;0.67;0.43;;;6.50;99.90;;;;;;5013314;28;20465;-72
2021/11/30 07:45:13;;;;;;;0.63;0.50;;;6.50;99.90;;;;;;5014566;28;20240;-72
2021/11/30 07:47:39;;;;;;;0.60;0.40;;;6.50;99.90;;;;;;5013273;28;20187;-71
2021/11/30 07:50:06;;;;;;;0.63;0.40;;;6.50;99.90;;;;;;5013076;28;20419;-71
2021/11/30 07:52:37;;;;;;;0.60;0.50;;;6.50;99.90;;;;;;5013192;28;20407;-72
2021/11/30 07:55:05;;;;;;;0.70;0.57;;;6.50;99.90;;;;;;5012970;28;20438;-71
2021/11/30 07:57:31;;;;;;;0.60;0.50;;;6.50;99.90;;;;;;5028319;28;20430;-72
2021/11/30 07:59:57;;;;;;;0.70;0.50;;;6.60;99.90;;;;;;5013195;28;20407;-73
2021/11/30 08:02:22;;;;;;;0.60;0.40;;;6.60;99.90;;;;;;5013890;28;20864;-74
2021/11/30 08:04:49;;;;;;;0.70;0.50;;;6.70;99.90;;;;;;5013633;28;20204;-72
2021/11/30 08:07:16;;;;;;;0.70;0.50;;;6.70;99.90;;;;;;5013253;28;20168;-72
2021/11/30 08:09:43;;;;;;;0.70;0.60;;;6.80;99.90;;;;;;5012818;28;20438;-72
2021/11/30 08:12:08;;;;;;;0.60;0.50;;;6.80;99.90;;;;;;5013017;28;20818;-73
2021/11/30 08:14:34;;;;;;;1.30;0.60;;;6.80;99.90;;;;;;5011679;28;20455;-72
2021/11/30 08:17:00;;;;;;;0.70;0.60;;;6.80;99.90;;;;;;5012602;28;20526;-73
2021/11/30 08:19:27;;;;;;;0.70;0.50;;;6.80;99.90;;;;;;5012778;28;20172;-73
2021/11/30 08:21:53;;;;;;;0.60;0.50;;;6.90;99.90;;;;;;5012649;28;20195;-72
2021/11/30 08:24:19;;;;;;;0.63;0.50;;;6.90;99.90;;;;;;5012553;28;20439;-72
2021/11/30 08:26:44;;;;;;;0.70;0.40;;;6.90;99.90;;;;;;5012615;28;20172;-72
2021/11/30 08:29:10;;;;;;;0.60;0.50;;;6.90;99.90;;;;;;5012395;28;20710;-73
2021/11/30 08:31:35;;;;;;;0.70;0.50;;;7.00;99.90;;;;;;5012684;28;20264;-72
2021/11/30 08:34:01;;;;;;;0.70;0.50;;;7.00;99.90;;;;;;5027614;28;20183;-72
2021/11/30 08:36:27;;;;;;;5.90;1.50;;;7.00;99.90;;;;;;5027622;28;20172;-72
2021/11/30 08:38:53;;;;;;;0.63;0.50;;;7.10;99.90;;;;;;5012433;28;20168;-72
2021/11/30 08:41:20;;;;;;;0.70;0.50;;;7.10;99.90;;;;;;5027754;28;20522;-73
2021/11/30 08:43:46;;;;;;;0.70;0.50;;;7.10;99.90;;;;;;5012620;28;20458;-73
2021/11/30 08:46:12;;;;;;;0.70;0.60;;;7.10;99.90;;;;;;5012304;28;20411;-73
2021/11/30 08:48:37;;;;;;;2.30;0.93;;;7.20;99.90;;;;;;5012578;28;20415;-72
2021/11/30 08:51:03;;;;;;;0.60;0.43;;;7.20;99.90;;;;;;5012203;28;20677;-72
2021/11/30 08:53:34;;;;;;;0.70;0.50;;;7.20;99.90;;;;;;5027784;28;20565;-73
2021/11/30 08:55:59;;;;;;;0.60;0.50;;;7.30;99.90;;;;;;5012056;28;20433;-73
2021/11/30 08:58:25;;;;;;;3.43;3.23;;;7.20;99.90;;;;;;5012613;28;20399;-72
2021/11/30 09:00:50;;;;;;;0.70;0.50;;;7.30;99.90;;;;;;5027621;28;20188;-73
2021/11/30 09:03:16;;;;;;;0.70;0.50;;;7.30;99.90;;;;;;5011044;28;20200;-72
2021/11/30 09:05:42;;;;;;;0.70;0.50;;;7.40;99.90;;;;;;5011879;28;20196;-72
2021/11/30 09:08:11;;;;;;;0.70;0.50;;;7.40;99.90;;;;;;5012471;28;20174;-71
2021/11/30 09:10:36;;;;;;;0.73;0.57;;;7.40;99.90;;;;;;5012883;28;20269;-71
2021/11/30 09:13:02;;;;;;;0.70;0.50;;;7.40;99.90;;;;;;5012492;28;20438;-73
2021/11/30 09:15:27;;;;;;;0.70;0.40;;;7.50;99.90;;;;;;5011960;28;20599;-72
2021/11/30 09:17:56;;;;;;;0.70;0.50;;;7.40;99.90;;;;;;5012397;28;20168;-72
2021/11/30 09:20:23;;;;;;;0.70;0.50;;;7.50;99.90;;;;;;5010978;28;20188;-73
2021/11/30 09:22:50;;;;;;;0.63;0.50;;;7.50;99.90;;;;;;5012300;28;20498;-73
2021/11/30 09:25:16;;;;;;;0.70;0.50;;;7.50;99.90;;;;;;5011766;28;20511;-73
2021/11/30 09:27:43;;;;;;;0.83;0.70;;;7.50;99.90;;;;;;5012258;28;20407;-73
2021/11/30 09:30:10;;;;;;;0.70;0.50;;;7.50;99.90;;;;;;5012057;28;20430;-72
2021/11/30 09:32:37;;;;;;;0.70;0.40;;;7.50;99.90;;;;;;5012188;28;20912;-72
2021/11/30 09:35:02;;;;;;;0.70;0.50;;;7.60;99.90;;;;;;5011757;28;20770;-73
2021/11/30 09:37:29;;;;;;;1.07;1.03;;;7.50;99.90;;;;;;5012002;28;20392;-73
2021/11/30 09:39:55;;;;;;;0.60;0.47;;;7.50;99.90;;;;;;5011069;28;20183;-73
2021/11/30 09:42:21;;;;;;;2.00;1.90;;;7.60;99.90;;;;;;5015738;28;20415;-73
2021/11/30 09:44:47;;;;;;;0.70;0.50;;;7.60;99.90;;;;;;5030711;28;20227;-71
2021/11/30 09:47:14;;;;;;;0.70;0.70;;;7.60;99.90;;;;;;5016143;28;20422;-71
2021/11/30 09:49:40;;;;;;;0.70;0.50;;;7.60;99.90;;;;;;5014952;28;20466;-72
2021/11/30 09:52:07;;;;;;;1.23;0.83;;;7.70;99.90;;;;;;5015781;28;20403;-72
2021/11/30 09:54:32;;;;;;;2.03;1.10;;;7.70;99.90;;;;;;5015890;28;20403;-72
2021/11/30 09:56:59;;;;;;;0.70;0.50;;;7.80;99.90;;;;;;5015202;28;20490;-73
2021/11/30 09:59:24;;;;;;;0.70;0.60;;;7.80;99.90;;;;;;5015804;28;20208;-72
2021/11/30 10:01:50;;;;;;;0.80;0.63;;;7.80;99.90;;;;;;5030805;28;20474;-72
2021/11/30 10:04:16;;;;;;;0.80;0.70;;;7.90;99.90;;;;;;5014233;28;20226;-72
2021/11/30 10:06:42;;;;;;;0.60;0.47;;;7.90;99.90;;;;;;5015214;28;20429;-72
2021/11/30 10:09:20;;;;;;;1.17;1.07;;;7.90;99.90;;;;;;5016031;28;20482;-72
2021/11/30 10:11:58;;;;;;;0.60;0.47;;;8.00;99.90;;;;;;5015253;28;20271;-72
2021/11/30 10:14:35;;;;;;;0.70;0.50;;;8.00;99.90;;;;;;5015350;28;20410;-72
2021/11/30 10:17:13;;;;;;;1.43;1.33;;;8.00;99.90;;;;;;5014950;28;20399;-72
2021/11/30 10:19:40;;;;;;;0.70;0.60;;;8.00;99.90;;;;;;5015272;28;20407;-72
2021/11/30 10:22:06;;;;;;;0.70;0.60;;;8.00;99.90;;;;;;5015505;28;20494;-72
2021/11/30 10:24:32;;;;;;;0.70;0.50;;;8.10;99.90;;;;;;5015268;28;20496;-72
2021/11/30 10:26:58;;;;;;;0.70;0.50;;;8.10;99.90;;;;;;5014881;28;20399;-72
2021/11/30 10:29:25;;;;;;;0.70;0.50;;;8.10;99.90;;;;;;5030510;28;20469;-72
2021/11/30 10:31:54;;;;;;;0.70;0.50;;;8.20;99.90;;;;;;5014719;28;20307;-72
2021/11/30 10:34:29;;;;;;;0.70;0.50;;;8.30;99.90;;;;;;5015100;28;20418;-72
2021/11/30 10:37:05;;;;;;;0.70;0.50;;;8.30;99.90;;;;;;5014892;28;20410;-72
2021/11/30 10:39:35;;;;;;;0.70;0.50;;;8.30;99.90;;;;;;5014987;28;20403;-72
2021/11/30 10:42:22;;;;;;;0.70;0.60;;;8.40;99.90;;;;;;5013455;28;20461;-73
2021/11/30 10:44:53;;;;;;;0.70;0.60;;;8.40;99.90;;;;;;5013208;28;20494;-71
2021/11/30 10:47:24;;;;;;;3.03;2.93;;;8.40;99.90;;;;;;5015079;28;20447;-72
2021/11/30 10:49:54;;;;;;;0.70;0.50;;;8.50;99.90;;;;;;5013152;28;20586;-71
2021/11/30 10:52:26;;;;;;;0.70;0.70;;;8.50;99.90;;;;;;5014167;28;20399;-73
2021/11/30 10:55:03;;;;;;;0.70;0.50;;;8.50;99.90;;;;;;5014456;28;20407;-73
2021/11/30 10:57:30;;;;;;;0.70;0.50;;;8.50;99.90;;;;;;5015141;28;20473;-73
2021/11/30 11:00:31;;;;;;;0.70;0.50;;;8.50;99.90;;;;;;5014688;28;20415;-73
2021/11/30 11:03:16;;;;;;;0.70;0.50;;;8.40;99.90;;;;;;5006711;28;20780;-73
2021/11/30 11:05:44;;;;;;;0.70;0.50;;;8.50;99.90;;;;;;5013884;28;20916;-72
2021/11/30 11:08:13;;;;;;;0.70;0.50;;;8.50;99.90;;;;;;5013976;28;20784;-72
2021/11/30 11:10:46;;;;;;;0.70;0.50;;;8.60;99.90;;;;;;5013812;28;20507;-72
2021/11/30 11:13:26;;;;;;;0.70;0.50;;;8.60;99.90;;;;;;5014016;28;20406;-72
2021/11/30 11:15:57;;;;;;;0.70;0.50;;;8.70;99.90;;;;;;5013672;28;20409;-72
2021/11/30 11:18:37;;;;;;;0.70;0.50;;;8.60;99.90;;;;;;5013812;28;20407;-72
2021/11/30 11:21:09;;;;;;;1.30;0.80;;;8.60;99.90;;;;;;5012674;28;20435;-73
2021/11/30 11:23:35;;;;;;;0.70;0.50;;;8.60;99.90;;;;;;5012302;28;20502;-72
2021/11/30 11:26:18;;;;;;;0.70;0.60;;;8.60;99.90;;;;;;5013751;28;20407;-73
2021/11/30 11:28:44;;;;;;;0.70;0.70;;;8.60;99.90;;;;;;5013666;28;20399;-72
2021/11/30 11:31:09;;;;;;;0.70;0.50;;;8.70;99.90;;;;;;5013596;28;20485;-72
2021/11/30 11:33:35;;;;;;;0.70;0.47;;;8.70;99.90;;;;;;5013649;28;20173;-72
2021/11/30 11:36:04;;;;;;;1.33;0.70;;;8.60;99.90;;;;;;5028370;28;20259;-72
2021/11/30 11:38:30;;;;;;;0.70;0.60;;;8.70;99.90;;;;;;5013416;28;20250;-72
2021/11/30 11:40:57;;;;;;;0.70;0.50;;;8.70;99.90;;;;;;5013272;28;20446;-73
2021/11/30 11:43:24;;;;;;;0.70;0.50;;;8.70;99.90;;;;;;5013170;28;20399;-72
2021/11/30 11:45:49;;;;;;;0.70;0.60;;;8.70;99.90;;;;;;5011797;28;20459;-72
2021/11/30 11:48:16;;;;;;;0.70;0.50;;;8.70;99.90;;;;;;5013425;28;20416;-73
2021/11/30 11:50:56;;;;;;;0.80;0.70;;;8.80;99.90;;;;;;5013404;28;20792;-73
2021/11/30 11:53:33;;;;;;;0.70;0.50;;;8.90;99.90;;;;;;5013502;28;20399;-72
2021/11/30 11:56:23;;;;;;;0.70;0.63;;;8.90;99.90;;;;;;5012879;28;20422;-72
2021/11/30 11:59:06;;;;;;;1.00;0.90;;;8.80;99.90;;;;;;5010114;28;20477;-72
2021/11/30 12:01:32;;;;;;;0.70;0.50;;;8.80;99.90;;;;;;5013161;28;20513;-73
2021/11/30 12:04:01;;;;;;;0.70;0.40;;;8.90;99.90;;;;;;5012114;28;20447;-73
2021/11/30 12:06:31;;;;;;;0.70;0.50;;;8.90;99.90;;;;;;5012840;28;20626;-72
2021/11/30 12:09:08;;;;;;;0.70;0.50;;;8.90;99.90;;;;;;5012969;28;20395;-72
2021/11/30 12:11:38;;;;;;;0.70;0.50;;;8.90;99.90;;;;;;5013031;28;20447;-72
2021/11/30 12:14:19;;;;;;;0.70;0.50;;;8.90;99.90;;;;;;5012798;28;20623;-72
2021/11/30 12:17:15;;;;;;;0.70;0.47;;;9.00;99.90;;;;;;5012879;28;20422;-72
2021/11/30 12:19:51;;;;;;;0.70;0.50;;;9.00;99.90;;;;;;5012387;28;20510;-72
2021/11/30 12:22:41;;;;;;;0.70;0.50;;;9.00;99.90;;;;;;5012886;28;20403;-72
2021/11/30 12:25:29;;;;;;;0.70;0.50;;;9.00;99.90;;;;;;5011402;28;20547;-72
2021/11/30 12:28:03;;;;;;;0.70;0.50;;;9.00;99.90;;;;;;5009040;28;20477;-72
2021/11/30 12:30:52;;;;;;;1.87;1.43;;;9.00;99.90;;;;;;5013039;28;20458;-72
2021/11/30 12:33:28;;;;;;;0.70;0.50;;;9.00;99.90;;;;;;5012845;28;20930;-73
2021/11/30 12:35:58;;;;;;;0.70;0.50;;;9.10;99.90;;;;;;5012661;28;20402;-73
2021/11/30 12:38:36;;;;;;;0.70;0.50;;;9.00;99.90;;;;;;5011572;28;20587;-73
2021/11/30 12:41:22;;;;;;;0.70;0.50;;;9.10;99.90;;;;;;5012844;28;20506;-73
2021/11/30 12:43:48;;;;;;;0.70;0.50;;;9.10;99.90;;;;;;5012462;28;20457;-73
2021/11/30 12:46:28;;;;;;;0.70;0.50;;;9.00;99.90;;;;;;5012301;28;20399;-72
2021/11/30 12:48:54;;;;;;;0.70;0.60;;;9.00;99.90;;;;;;5027741;28;20194;-73
2021/11/30 12:51:24;;;;;;;0.70;0.47;;;9.00;99.90;;;;;;5012548;28;20498;-73
2021/11/30 12:53:50;;;;;;;0.70;0.50;;;9.00;99.90;;;;;;5012976;28;20537;-72
2021/11/30 12:56:55;;;;;;;0.70;0.50;;;9.10;99.90;;;;;;5010592;28;20832;-72
2021/11/30 12:59:42;;;;;;;0.70;0.50;;;9.10;99.90;;;;;;5027633;28;20411;-73
2021/11/30 13:02:17;;;;;;;0.70;0.50;;;9.10;99.90;;;;;;5012507;28;20506;-72
2021/11/30 13:04:43;;;;;;;0.70;0.50;;;9.00;99.90;;;;;;5011054;28;20537;-73
2021/11/30 13:07:12;;;;;;;0.70;0.63;;;9.00;99.90;;;;;;5011970;28;20476;-72
2021/11/30 13:09:42;;;;;;;0.70;0.50;;;9.00;99.90;;;;;;5027880;28;20160;-72